createdAt,value
2022-08-03T00:02:18.066Z,19.80
2022-08-03T00:04:45.514Z,19.80
2022-08-03T00:07:15.711Z,19.80
2022-08-03T00:09:42.762Z,19.70
2022-08-03T00:12:10.105Z,19.70
2022-08-03T00:14:39.833Z,19.70
2022-08-03T00:17:07.037Z,19.70
2022-08-03T00:19:34.337Z,19.70
2022-08-03T00:22:01.493Z,19.70
2022-08-03T00:24:28.641Z,19.70
2022-08-03T00:26:55.825Z,19.60
2022-08-03T00:29:23.036Z,19.60
2022-08-03T00:31:52.465Z,19.60
2022-08-03T00:34:29.870Z,19.50
2022-08-03T00:37:03.960Z,19.50
2022-08-03T00:39:31.045Z,19.40
2022-08-03T00:42:02.391Z,19.40
2022-08-03T00:44:29.406Z,19.40
2022-08-03T00:46:56.468Z,19.30
2022-08-03T00:49:24.234Z,19.20
2022-08-03T00:51:51.485Z,19.10
2022-08-03T00:54:19.033Z,19.00
2022-08-03T00:56:59.456Z,18.90
2022-08-03T00:59:30.347Z,18.80
2022-08-03T01:01:58.422Z,18.80
2022-08-03T01:04:25.517Z,18.70
2022-08-03T01:07:15.568Z,18.70
2022-08-03T01:10:14.483Z,18.60
2022-08-03T01:12:57.956Z,18.60
2022-08-03T01:15:44.983Z,18.50
2022-08-03T01:18:18.846Z,18.50
2022-08-03T01:20:49.621Z,18.40
2022-08-03T01:23:46.256Z,18.50
2022-08-03T01:26:28.816Z,18.40
2022-08-03T01:29:52.996Z,18.40
2022-08-03T01:32:59.599Z,18.30
2022-08-03T01:35:28.332Z,18.30
2022-08-03T01:38:04.600Z,18.30
2022-08-03T01:40:34.576Z,18.20
2022-08-03T01:43:04.646Z,18.20
2022-08-03T01:45:34.025Z,18.20
2022-08-03T01:48:02.887Z,18.10
2022-08-03T01:50:31.301Z,18.10
2022-08-03T01:52:59.401Z,18.10
2022-08-03T01:55:31.915Z,18.10
2022-08-03T01:58:05.535Z,18.10
2022-08-03T02:00:37.327Z,18.10
2022-08-03T02:03:13.361Z,18.00
2022-08-03T02:05:45.626Z,18.00
2022-08-03T02:08:18.305Z,18.00
2022-08-03T02:10:47.536Z,18.00
2022-08-03T02:13:17.188Z,18.00
2022-08-03T02:15:44.964Z,18.00
2022-08-03T02:18:13.300Z,18.00
2022-08-03T02:20:43.536Z,18.00
2022-08-03T02:23:10.821Z,18.00
2022-08-03T02:25:46.096Z,18.00
2022-08-03T02:28:20.027Z,17.90
2022-08-03T02:30:54.299Z,17.90
2022-08-03T02:33:30.803Z,17.90
2022-08-03T02:36:00.206Z,17.90
2022-08-03T02:38:33.200Z,17.80
2022-08-03T02:41:07.287Z,17.80
2022-08-03T02:43:57.702Z,17.80
2022-08-03T02:46:28.958Z,17.80
2022-08-03T02:48:57.662Z,17.80
2022-08-03T02:51:28.248Z,17.80
2022-08-03T02:53:57.940Z,17.80
2022-08-03T02:56:26.020Z,17.70
2022-08-03T02:58:54.828Z,17.70
2022-08-03T03:01:23.253Z,17.70
2022-08-03T03:03:52.365Z,17.70
2022-08-03T03:06:21.420Z,17.70
2022-08-03T03:08:52.522Z,17.70
2022-08-03T03:11:28.062Z,17.70
2022-08-03T03:13:58.438Z,17.70
2022-08-03T03:16:27.099Z,17.70
2022-08-03T03:19:03.155Z,17.70
2022-08-03T03:21:40.471Z,17.70
2022-08-03T03:24:09.722Z,17.70
2022-08-03T03:26:42.282Z,17.70
2022-08-03T03:29:09.961Z,17.60
2022-08-03T03:31:37.380Z,17.60
2022-08-03T03:34:05.100Z,17.60
2022-08-03T03:36:33.940Z,17.60
2022-08-03T03:39:15.623Z,17.60
2022-08-03T03:41:43.876Z,17.60
2022-08-03T03:44:10.963Z,17.60
2022-08-03T03:46:39.323Z,17.60
2022-08-03T03:49:07.443Z,17.50
2022-08-03T03:51:35.015Z,17.50
2022-08-03T03:54:05.767Z,17.50
2022-08-03T03:56:33.501Z,17.50
2022-08-03T03:59:00.677Z,17.50
2022-08-03T04:01:29.124Z,17.50
2022-08-03T04:03:56.122Z,17.50
2022-08-03T04:06:41.938Z,17.50
2022-08-03T04:09:50.855Z,17.50
2022-08-03T04:12:19.710Z,17.50
2022-08-03T04:14:51.017Z,17.50
2022-08-03T04:17:19.880Z,17.50
2022-08-03T04:19:51.460Z,17.50
2022-08-03T04:22:25.501Z,17.50
2022-08-03T04:25:03.936Z,17.50
2022-08-03T04:27:36.945Z,17.50
2022-08-03T04:30:09.136Z,17.50
2022-08-03T04:32:41.871Z,17.50
2022-08-03T04:35:12.603Z,17.50
2022-08-03T04:37:46.044Z,17.50
2022-08-03T04:40:30.724Z,17.60
2022-08-03T04:43:00.055Z,17.60
2022-08-03T04:45:31.663Z,17.60
2022-08-03T04:47:59.588Z,17.60
2022-08-03T04:50:30.561Z,17.60
2022-08-03T04:53:07.310Z,17.70
2022-08-03T04:55:36.482Z,17.70
2022-08-03T04:58:04.904Z,17.70
2022-08-03T05:00:32.184Z,17.70
2022-08-03T05:02:59.336Z,17.70
2022-08-03T05:05:26.572Z,17.80
2022-08-03T05:08:13.774Z,17.80
2022-08-03T05:10:41.039Z,17.90
2022-08-03T05:13:12.029Z,17.90
2022-08-03T05:15:43.253Z,17.90
2022-08-03T05:18:14.006Z,18.00
2022-08-03T05:20:41.665Z,18.00
2022-08-03T05:23:08.823Z,18.10
2022-08-03T05:25:36.010Z,18.10
2022-08-03T05:28:07.049Z,18.20
2022-08-03T05:30:34.644Z,18.20
2022-08-03T05:33:05.179Z,18.30
2022-08-03T05:35:55.881Z,18.40
2022-08-03T05:38:33.106Z,18.50
2022-08-03T05:41:22.366Z,18.50
2022-08-03T05:43:53.803Z,18.70
2022-08-03T05:46:24.849Z,18.70
2022-08-03T05:48:55.113Z,18.80
2022-08-03T05:51:22.304Z,18.90
2022-08-03T05:53:49.719Z,18.90
2022-08-03T05:56:17.128Z,19.00
2022-08-03T05:58:46.496Z,19.10
2022-08-03T06:01:15.002Z,19.20
2022-08-03T06:03:42.242Z,19.30
2022-08-03T06:06:09.541Z,19.40
2022-08-03T06:08:36.528Z,19.50
2022-08-03T06:11:04.778Z,19.70
2022-08-03T06:13:32.184Z,19.80
2022-08-03T06:15:59.352Z,19.90
2022-08-03T06:18:26.711Z,20.10
2022-08-03T06:20:54.267Z,20.20
2022-08-03T06:23:52.574Z,20.30
2022-08-03T06:26:12.276Z,20.40
2022-08-03T06:28:53.165Z,20.40
2022-08-03T06:31:33.210Z,20.60
2022-08-03T06:34:31.357Z,20.60
2022-08-03T06:36:53.000Z,20.60
2022-08-03T06:39:23.458Z,20.80
2022-08-03T06:41:51.621Z,20.80
2022-08-03T06:44:22.771Z,20.90
2022-08-03T06:46:49.799Z,20.90
2022-08-03T06:49:17.174Z,21.00
2022-08-03T06:52:04.147Z,21.10
2022-08-03T06:54:33.211Z,21.20
2022-08-03T06:57:03.387Z,21.40
2022-08-03T07:00:07.337Z,21.50
2022-08-03T07:02:26.815Z,21.60
2022-08-03T07:04:55.650Z,21.70
2022-08-03T07:07:22.658Z,21.80
2022-08-03T07:09:56.520Z,21.90
2022-08-03T07:12:26.323Z,22.20
2022-08-03T07:14:58.058Z,22.10
2022-08-03T07:17:28.616Z,22.10
2022-08-03T07:19:55.718Z,22.00
2022-08-03T07:22:22.881Z,22.00
2022-08-03T07:24:49.911Z,22.10
2022-08-03T07:27:17.233Z,22.20
2022-08-03T07:29:44.385Z,22.10
2022-08-03T07:32:11.592Z,22.20
2022-08-03T07:34:38.662Z,22.40
2022-08-03T07:37:05.669Z,22.50
2022-08-03T07:39:32.827Z,22.60
2022-08-03T07:41:59.900Z,22.80
2022-08-03T07:44:27.064Z,22.90
2022-08-03T07:46:55.165Z,22.80
2022-08-03T07:49:23.799Z,22.90
2022-08-03T07:52:10.994Z,23.00
2022-08-03T07:54:38.125Z,23.10
2022-08-03T07:57:05.277Z,23.40
2022-08-03T07:59:56.431Z,23.40
2022-08-03T08:05:29.657Z,23.80
2022-08-03T08:07:57.062Z,24.10
2022-08-03T08:10:28.732Z,24.40
2022-08-03T08:12:56.759Z,24.40
2022-08-03T08:15:26.875Z,24.60
2022-08-03T08:17:59.256Z,24.50
2022-08-03T08:20:31.364Z,24.40
2022-08-03T08:23:19.904Z,24.50
2022-08-03T08:25:54.530Z,24.50
2022-08-03T08:28:30.081Z,24.40
2022-08-03T08:30:59.118Z,24.60
2022-08-03T08:33:37.212Z,24.70
2022-08-03T08:36:15.387Z,24.90
2022-08-03T08:38:44.861Z,25.00
2022-08-03T08:41:16.484Z,25.10
2022-08-03T08:43:43.765Z,25.40
2022-08-03T08:46:22.921Z,25.60
2022-08-03T08:48:55.642Z,25.70
2022-08-03T08:51:52.699Z,25.80
2022-08-03T08:54:18.729Z,25.90
2022-08-03T08:56:46.758Z,26.00
2022-08-03T08:59:14.788Z,26.20
2022-08-03T09:01:41.875Z,26.40
2022-08-03T09:04:09.598Z,26.40
2022-08-03T09:06:36.892Z,26.50
2022-08-03T09:09:06.365Z,26.50
2022-08-03T09:11:54.534Z,26.50
2022-08-03T09:14:33.669Z,26.80
2022-08-03T09:17:04.691Z,26.90
2022-08-03T09:19:34.022Z,26.90
2022-08-03T09:22:17.423Z,27.00
2022-08-03T09:25:23.242Z,27.30
2022-08-03T09:27:50.437Z,27.30
2022-08-03T09:30:34.508Z,27.20
2022-08-03T09:33:10.546Z,27.50
2022-08-03T09:36:04.538Z,27.20
2022-08-03T09:38:39.021Z,27.40
2022-08-03T09:41:21.076Z,27.60
2022-08-03T09:43:48.672Z,27.90
2022-08-03T09:46:15.789Z,28.00
2022-08-03T09:48:42.804Z,27.90
2022-08-03T09:51:14.307Z,27.90
2022-08-03T09:54:01.761Z,28.10
2022-08-03T09:56:58.749Z,28.30
2022-08-03T09:59:32.366Z,28.40
2022-08-03T10:02:01.757Z,28.50
2022-08-03T10:04:29.458Z,28.60
2022-08-03T10:07:06.421Z,28.70
2022-08-03T10:09:34.004Z,28.50
2022-08-03T10:12:13.207Z,28.50
2022-08-03T10:14:42.254Z,28.50
2022-08-03T10:17:12.638Z,28.50
2022-08-03T10:19:41.310Z,28.60
2022-08-03T10:22:15.200Z,28.60
2022-08-03T10:25:07.582Z,28.80
2022-08-03T10:27:41.057Z,28.70
2022-08-03T10:30:13.946Z,28.70
2022-08-03T10:33:50.075Z,29.10
2022-08-03T10:36:01.631Z,28.80
2022-08-03T10:38:46.046Z,29.20
2022-08-03T10:41:14.160Z,29.30
2022-08-03T10:43:53.674Z,29.50
2022-08-03T10:46:21.867Z,29.60
2022-08-03T10:48:53.867Z,29.80
2022-08-03T10:51:21.812Z,29.70
2022-08-03T10:53:54.987Z,29.80
2022-08-03T10:56:50.566Z,30.00
2022-08-03T10:59:46.228Z,29.80
2022-08-03T11:02:14.922Z,29.80
2022-08-03T11:04:47.158Z,29.90
2022-08-03T11:07:17.725Z,30.00
2022-08-03T11:09:57.690Z,29.80
2022-08-03T11:12:31.148Z,29.70
2022-08-03T11:15:09.844Z,29.80
2022-08-03T11:17:46.505Z,30.00
2022-08-03T11:20:53.561Z,30.00
2022-08-03T11:24:05.224Z,30.20
2022-08-03T11:26:41.911Z,30.10
2022-08-03T11:29:30.159Z,29.60
2022-08-03T11:31:57.502Z,29.80
2022-08-03T11:34:25.299Z,29.70
2022-08-03T11:37:28.569Z,29.70
2022-08-03T11:39:57.291Z,29.90
2022-08-03T11:42:24.673Z,30.20
2022-08-03T11:44:57.783Z,30.40
2022-08-03T11:47:27.917Z,30.50
2022-08-03T11:49:59.123Z,30.60
2022-08-03T11:52:28.776Z,30.90
2022-08-03T11:54:56.707Z,30.70
2022-08-03T11:59:11.018Z,30.80
2022-08-03T12:00:29.702Z,31.10
2022-08-03T12:02:58.625Z,31.10
2022-08-03T12:05:51.652Z,30.90
2022-08-03T12:08:32.456Z,31.10
2022-08-03T12:11:04.511Z,31.10
2022-08-03T12:14:10.683Z,31.00
2022-08-03T12:16:30.301Z,31.20
2022-08-03T12:18:59.319Z,31.20
2022-08-03T12:21:26.749Z,31.30
2022-08-03T12:24:00.297Z,31.20
2022-08-03T12:26:58.105Z,31.50
2022-08-03T12:29:27.247Z,31.60
2022-08-03T12:31:56.083Z,31.90
2022-08-03T12:34:23.482Z,32.10
2022-08-03T12:37:22.109Z,32.10
2022-08-03T12:40:02.566Z,31.80
2022-08-03T12:42:37.150Z,32.10
2022-08-03T12:45:28.981Z,32.10
2022-08-03T12:48:01.287Z,32.00
2022-08-03T12:50:33.466Z,32.20
2022-08-03T12:53:03.180Z,32.10
2022-08-03T12:55:57.284Z,32.10
2022-08-03T12:58:36.048Z,32.10
2022-08-03T13:01:09.677Z,32.30
2022-08-03T13:03:50.491Z,32.20
2022-08-03T13:06:25.345Z,32.00
2022-08-03T13:09:08.506Z,32.10
2022-08-03T13:11:55.809Z,32.20
2022-08-03T13:14:23.689Z,32.20
2022-08-03T13:16:51.231Z,32.60
2022-08-03T13:19:18.371Z,32.70
2022-08-03T13:21:53.849Z,32.60
2022-08-03T13:24:33.234Z,32.60
2022-08-03T13:27:21.923Z,32.40
2022-08-03T13:29:48.225Z,32.40
2022-08-03T13:32:15.390Z,32.30
2022-08-03T13:34:42.621Z,32.40
2022-08-03T13:37:10.302Z,32.10
2022-08-03T13:39:57.598Z,32.10
2022-08-03T13:42:29.516Z,31.80
2022-08-03T13:44:56.747Z,31.70
2022-08-03T13:47:24.092Z,31.70
2022-08-03T13:49:54.348Z,32.00
2022-08-03T13:52:31.973Z,32.00
2022-08-03T13:54:59.876Z,31.80
2022-08-03T13:58:04.488Z,31.70
2022-08-03T14:00:26.445Z,31.80
2022-08-03T14:03:09.533Z,32.00
2022-08-03T14:05:41.820Z,31.70
2022-08-03T14:08:09.328Z,31.90
2022-08-03T14:10:39.754Z,31.70
2022-08-03T14:13:07.527Z,31.80
2022-08-03T14:15:37.648Z,31.60
2022-08-03T14:18:07.402Z,31.50
2022-08-03T14:20:47.905Z,31.60
2022-08-03T14:23:17.787Z,31.60
2022-08-03T14:25:51.531Z,31.60
2022-08-03T14:28:25.081Z,31.70
2022-08-03T14:30:53.860Z,31.80
2022-08-03T14:33:22.383Z,31.90
2022-08-03T14:35:49.874Z,31.80
2022-08-03T14:38:20.840Z,31.80
2022-08-03T14:40:48.751Z,32.00
2022-08-03T14:43:18.097Z,32.10
2022-08-03T14:45:45.342Z,32.10
2022-08-03T14:50:33.158Z,32.00
2022-08-03T14:50:59.904Z,32.00
2022-08-03T14:53:28.796Z,32.00
2022-08-03T14:55:56.098Z,32.10
2022-08-03T14:58:25.957Z,32.10
2022-08-03T15:00:55.450Z,32.00
2022-08-03T15:03:25.137Z,31.60
2022-08-03T15:05:56.925Z,31.70
2022-08-03T15:08:26.231Z,31.80
2022-08-03T15:10:54.735Z,31.80
2022-08-03T15:13:22.221Z,31.70
2022-08-03T15:15:50.020Z,31.90
2022-08-03T15:18:17.214Z,31.90
2022-08-03T15:20:46.234Z,31.90
2022-08-03T15:23:15.917Z,31.80
2022-08-03T15:26:04.318Z,31.70
2022-08-03T15:28:32.735Z,31.60
2022-08-03T15:31:00.697Z,31.70
2022-08-03T15:33:28.660Z,31.40
2022-08-03T15:35:57.175Z,31.20
2022-08-03T15:38:25.758Z,31.30
2022-08-03T15:40:55.016Z,31.10
2022-08-03T15:43:23.582Z,31.00
2022-08-03T15:46:12.752Z,31.00
2022-08-03T15:48:39.432Z,31.30
2022-08-03T15:51:10.003Z,31.30
2022-08-03T15:53:39.276Z,31.30
2022-08-03T15:56:12.114Z,31.40
2022-08-03T15:59:04.450Z,31.30
2022-08-03T16:01:29.101Z,31.20
2022-08-03T16:03:57.301Z,31.20
2022-08-03T16:06:29.867Z,31.10
2022-08-03T16:09:23.980Z,31.00
2022-08-03T16:11:53.873Z,31.00
2022-08-03T16:14:32.049Z,31.10
2022-08-03T16:17:00.621Z,31.10
2022-08-03T16:19:28.146Z,31.00
2022-08-03T16:21:55.339Z,30.90
2022-08-03T16:24:27.807Z,30.70
2022-08-03T16:26:56.696Z,30.70
2022-08-03T16:29:24.270Z,30.70
2022-08-03T16:31:53.002Z,30.80
2022-08-03T16:34:21.054Z,30.80
2022-08-03T16:36:48.249Z,30.60
2022-08-03T16:39:15.567Z,30.60
2022-08-03T16:41:53.975Z,30.50
2022-08-03T16:44:30.989Z,30.30
2022-08-03T16:46:59.676Z,30.20
2022-08-03T16:49:55.508Z,30.10
2022-08-03T16:52:16.781Z,29.90
2022-08-03T16:54:50.551Z,29.70
2022-08-03T16:57:56.480Z,29.50
2022-08-03T17:00:32.727Z,29.30
2022-08-03T17:03:04.100Z,29.10
2022-08-03T17:05:32.654Z,28.90
2022-08-03T17:08:15.691Z,28.70
2022-08-03T17:10:45.299Z,28.60
2022-08-03T17:13:21.431Z,28.50
2022-08-03T17:16:00.621Z,28.40
2022-08-03T17:18:38.374Z,28.40
2022-08-03T17:21:10.532Z,28.30
2022-08-03T17:24:00.057Z,28.30
2022-08-03T17:26:30.278Z,28.10
2022-08-03T17:29:12.618Z,28.10
2022-08-03T17:31:48.779Z,28.00
2022-08-03T17:34:19.118Z,28.00
2022-08-03T17:37:03.767Z,27.90
2022-08-03T17:39:57.108Z,27.80
2022-08-03T17:42:31.027Z,27.80
2022-08-03T17:45:07.677Z,27.80
2022-08-03T17:47:41.935Z,27.70
2022-08-03T17:50:23.512Z,27.60
2022-08-03T17:53:23.784Z,27.50
2022-08-03T17:56:42.649Z,27.40
2022-08-03T17:59:50.917Z,27.30
2022-08-03T18:02:47.735Z,27.10
2022-08-03T18:05:22.445Z,27.00
2022-08-03T18:07:59.479Z,27.00
2022-08-03T18:10:34.559Z,26.90
2022-08-03T18:13:14.737Z,26.80
2022-08-03T18:16:01.003Z,26.80
2022-08-03T18:18:43.192Z,26.70
2022-08-03T18:21:16.670Z,26.70
2022-08-03T18:23:46.066Z,26.60
2022-08-03T18:26:19.120Z,26.60
2022-08-03T18:28:49.119Z,26.50
2022-08-03T18:31:33.156Z,26.40
2022-08-03T18:34:16.630Z,26.40
2022-08-03T18:36:48.977Z,26.30
2022-08-03T18:39:16.835Z,26.20
2022-08-03T18:41:46.988Z,26.10
2022-08-03T18:44:52.855Z,26.10
2022-08-03T18:47:51.640Z,26.00
2022-08-03T18:50:52.282Z,25.90
2022-08-03T18:54:06.264Z,25.70
2022-08-03T18:56:52.106Z,25.60
2022-08-03T18:59:41.894Z,25.50
2022-08-03T19:02:34.879Z,25.40
2022-08-03T19:05:10.978Z,25.30
2022-08-03T19:07:40.840Z,25.20
2022-08-03T19:10:15.760Z,25.10
2022-08-03T19:12:51.759Z,25.00
2022-08-03T19:15:36.406Z,24.80
2022-08-03T19:18:11.260Z,24.70
2022-08-03T19:20:41.419Z,24.50
2022-08-03T19:23:16.345Z,24.40
2022-08-03T19:25:43.951Z,24.30
2022-08-03T19:28:11.237Z,24.20
2022-08-03T19:30:46.169Z,24.10
2022-08-03T19:33:21.560Z,24.00
2022-08-03T19:35:55.654Z,23.80
2022-08-03T19:38:28.465Z,23.70
2022-08-03T19:43:57.696Z,23.60
2022-08-03T19:46:31.185Z,23.40
2022-08-03T19:49:15.372Z,23.30
2022-08-03T19:51:58.972Z,23.20
2022-08-03T19:54:53.558Z,23.20
2022-08-03T19:57:25.164Z,23.00
2022-08-03T19:59:57.164Z,23.00
2022-08-03T20:02:27.229Z,22.90
2022-08-03T20:05:01.169Z,22.80
2022-08-03T20:07:33.498Z,22.80
2022-08-03T20:10:08.898Z,22.70
2022-08-03T20:12:39.435Z,22.60
2022-08-03T20:15:07.829Z,22.60
2022-08-03T20:17:55.204Z,22.50
2022-08-03T20:20:34.001Z,22.50
2022-08-03T20:23:16.680Z,22.40
2022-08-03T20:25:58.571Z,22.40
2022-08-03T20:28:50.041Z,22.30
2022-08-03T20:31:21.628Z,22.30
2022-08-03T20:33:53.452Z,22.20
2022-08-03T20:36:20.705Z,22.10
2022-08-03T20:38:49.046Z,22.10
2022-08-03T20:41:17.710Z,22.00
2022-08-03T20:43:46.001Z,22.00
2022-08-03T20:46:32.659Z,21.90
2022-08-03T20:49:06.209Z,21.90
2022-08-03T20:51:50.140Z,21.90
2022-08-03T20:54:30.866Z,21.80
2022-08-03T20:57:04.190Z,21.80
2022-08-03T20:59:47.057Z,21.70
2022-08-03T21:02:29.008Z,21.70
2022-08-03T21:05:02.979Z,21.60
2022-08-03T21:08:03.750Z,21.60
2022-08-03T21:10:28.772Z,21.50
2022-08-03T21:13:12.763Z,23.60
2022-08-03T21:13:16.225Z,21.50
2022-08-03T21:16:04.797Z,21.40
2022-08-03T21:18:43.521Z,21.40
2022-08-03T21:21:17.916Z,21.30
2022-08-03T21:23:49.764Z,21.30
2022-08-03T21:26:26.113Z,21.30
2022-08-03T21:28:56.537Z,21.20
2022-08-03T21:31:26.620Z,21.20
2022-08-03T21:33:57.219Z,21.10
2022-08-03T21:36:27.754Z,21.10
2022-08-03T21:38:57.272Z,21.10
2022-08-03T21:41:32.030Z,21.00
2022-08-03T21:44:00.921Z,21.00
2022-08-03T21:46:35.088Z,21.00
2022-08-03T21:50:05.702Z,20.90
2022-08-03T21:51:59.380Z,20.90
2022-08-03T21:54:35.842Z,20.90
2022-08-03T21:57:08.414Z,20.80
2022-08-03T21:59:38.141Z,20.80
2022-08-03T22:02:16.450Z,20.70
2022-08-03T22:04:56.304Z,20.70
2022-08-03T22:07:27.376Z,20.60
2022-08-03T22:09:57.233Z,20.60
2022-08-03T22:12:28.855Z,20.60
2022-08-03T22:15:00.820Z,20.60
2022-08-03T22:17:54.573Z,20.50
2022-08-03T22:20:20.550Z,20.50
2022-08-03T22:22:57.110Z,20.40
2022-08-03T22:25:29.446Z,20.40
2022-08-03T22:28:00.003Z,20.30
2022-08-03T22:30:27.837Z,20.30
2022-08-03T22:32:56.344Z,20.20
2022-08-03T22:35:26.313Z,20.20
2022-08-03T22:37:57.534Z,20.10
2022-08-03T22:40:24.847Z,20.10
2022-08-03T22:42:52.741Z,20.10
2022-08-03T22:46:10.628Z,20.00
2022-08-03T22:48:08.396Z,20.00
2022-08-03T22:50:35.925Z,20.00
2022-08-03T22:53:03.529Z,20.00
2022-08-03T22:55:31.122Z,19.90
2022-08-03T22:57:58.281Z,19.90
2022-08-03T23:00:25.807Z,19.90
2022-08-03T23:02:56.925Z,19.80
2022-08-03T23:06:01.692Z,19.80
2022-08-03T23:08:18.918Z,19.80
2022-08-03T23:10:47.475Z,19.70
2022-08-03T23:13:20.013Z,19.70
2022-08-03T23:16:01.420Z,19.70
2022-08-03T23:18:33.009Z,19.60
2022-08-03T23:21:11.638Z,19.70
2022-08-03T23:23:43.831Z,19.60
2022-08-03T23:26:15.710Z,19.60
2022-08-03T23:28:46.998Z,19.60
2022-08-03T23:31:15.571Z,19.60
2022-08-03T23:33:45.585Z,19.60
2022-08-03T23:36:30.768Z,19.60
2022-08-03T23:39:02.200Z,19.60
2022-08-03T23:41:30.896Z,19.60
2022-08-03T23:44:01.231Z,19.60
2022-08-03T23:46:30.427Z,19.60
2022-08-03T23:48:59.944Z,19.60
2022-08-03T23:51:44.141Z,19.60
2022-08-03T23:54:17.208Z,19.60
2022-08-03T23:57:37.609Z,19.50
